YLEG weather

Leongatha Airport
Victoria, Australia

Public forecast

Using degrees Celsius for public forecast. Weather courtesy of forecast.io.

Closest aviation weather report (METAR) to Leongatha Airport

Closest report is Melbourne Essendon Airport, 64.5 nm (119.4 km) NW. Retrieved 2020/01/23 16:00 UTC (14 minutes ago):

YMEN 231600Z AUTO 35008KT 9999 // NCD 11/07 Q1007

Closest aviation forecast (TAF) to Leongatha Airport

Closest forecast is Melbourne International Airport, 68.8 nm (127.4 km) NW. Retrieved 2020/01/23 12:00 UTC (4 hours ago):

TAF YMML 231104Z 2312/2418 34010KT CAVOK FM240000 27012KT 9999 SCT050 FM240900 33008KT 9999 FEW040